createdAt,value
2022-09-06T00:00:07.282Z,52.89
2022-09-06T00:02:36.069Z,52.86
2022-09-06T00:05:06.915Z,52.72
2022-09-06T00:07:35.269Z,52.73
2022-09-06T00:10:03.997Z,52.71
2022-09-06T00:12:32.511Z,52.91
2022-09-06T00:15:00.485Z,52.41
2022-09-06T00:17:28.520Z,52.62
2022-09-06T00:19:56.493Z,52.67
2022-09-06T00:22:25.952Z,52.58
2022-09-06T00:24:53.906Z,52.63
2022-09-06T00:27:22.484Z,52.49
2022-09-06T00:29:50.475Z,52.73
2022-09-06T00:32:18.563Z,52.80
2022-09-06T00:34:46.576Z,52.68
2022-09-06T00:37:14.539Z,52.70
2022-09-06T00:39:43.995Z,52.81
2022-09-06T00:42:13.831Z,52.79
2022-09-06T00:44:42.254Z,52.72
2022-09-06T00:47:10.611Z,52.45
2022-09-06T00:49:43.022Z,52.47
2022-09-06T00:52:14.982Z,52.59
2022-09-06T00:54:45.027Z,52.45
2022-09-06T00:57:14.713Z,52.36
2022-09-06T00:59:43.801Z,52.73
2022-09-06T01:02:12.334Z,52.75
2022-09-06T01:04:44.706Z,52.64
2022-09-06T01:07:29.308Z,52.56
2022-09-06T01:10:13.700Z,52.75
2022-09-06T01:12:51.805Z,52.67
2022-09-06T01:15:30.725Z,52.40
2022-09-06T01:18:11.584Z,52.28
2022-09-06T01:20:48.350Z,52.22
2022-09-06T01:23:47.230Z,52.56
2022-09-06T01:26:38.943Z,52.65
2022-09-06T01:29:14.684Z,52.59
2022-09-06T01:31:49.279Z,52.32
2022-09-06T01:34:24.788Z,52.55
2022-09-06T01:37:10.054Z,52.68
2022-09-06T01:39:40.956Z,52.29
2022-09-06T01:42:13.431Z,52.27
2022-09-06T01:44:47.445Z,52.32
2022-09-06T01:47:27.070Z,52.52
2022-09-06T01:50:10.661Z,52.26
2022-09-06T01:52:51.737Z,52.17
2022-09-06T01:55:25.765Z,52.33
2022-09-06T01:58:11.742Z,52.22
2022-09-06T02:00:49.626Z,52.08
2022-09-06T02:03:29.076Z,52.58
2022-09-06T02:06:03.972Z,52.13
2022-09-06T02:08:35.880Z,52.49
2022-09-06T02:11:06.038Z,52.21
2022-09-06T02:13:38.840Z,52.31
2022-09-06T02:16:12.006Z,52.38
2022-09-06T02:18:44.249Z,52.53
2022-09-06T02:21:16.378Z,52.22
2022-09-06T02:23:46.053Z,52.50
2022-09-06T02:26:18.628Z,52.56
2022-09-06T02:28:47.075Z,52.12
2022-09-06T02:31:22.426Z,52.39
2022-09-06T02:33:52.302Z,52.36
2022-09-06T02:36:21.053Z,52.29
2022-09-06T02:38:49.397Z,52.49
2022-09-06T02:41:22.645Z,52.29
2022-09-06T02:43:50.822Z,52.17
2022-09-06T02:46:20.238Z,52.02
2022-09-06T02:48:48.253Z,52.46
2022-09-06T02:51:16.266Z,52.19
2022-09-06T02:53:44.280Z,52.23
2022-09-06T02:56:12.709Z,52.51
2022-09-06T02:58:40.877Z,52.35
2022-09-06T03:01:09.160Z,52.20
2022-09-06T03:03:38.602Z,52.35
2022-09-06T03:06:06.812Z,52.43
2022-09-06T03:08:36.545Z,52.01
2022-09-06T03:11:04.604Z,52.42
2022-09-06T03:13:32.529Z,51.95
2022-09-06T03:16:01.669Z,52.05
2022-09-06T03:18:31.179Z,52.27
2022-09-06T03:21:01.084Z,52.00
2022-09-06T03:23:30.238Z,52.36
2022-09-06T03:25:58.698Z,52.25
2022-09-06T03:28:27.863Z,52.01
2022-09-06T03:30:56.019Z,51.99
2022-09-06T03:33:24.341Z,52.27
2022-09-06T03:35:54.033Z,52.18
2022-09-06T03:38:23.847Z,52.12
2022-09-06T03:40:52.944Z,52.28
2022-09-06T03:43:23.113Z,52.27
2022-09-06T03:45:53.030Z,51.99
2022-09-06T03:48:22.898Z,52.11
2022-09-06T03:50:52.988Z,52.14
2022-09-06T03:53:21.388Z,52.24
2022-09-06T03:55:52.392Z,52.14
2022-09-06T03:58:22.694Z,52.25
2022-09-06T04:00:51.163Z,52.27
2022-09-06T04:03:20.216Z,52.04
2022-09-06T04:05:48.204Z,52.03
2022-09-06T04:08:16.187Z,52.06
2022-09-06T04:10:45.316Z,52.21
2022-09-06T04:13:14.680Z,52.02
2022-09-06T04:15:46.883Z,52.12
2022-09-06T04:18:14.999Z,52.20
2022-09-06T04:20:42.970Z,52.35
2022-09-06T04:23:10.930Z,52.39
2022-09-06T04:25:38.897Z,52.24
2022-09-06T04:28:06.891Z,52.36
2022-09-06T04:30:36.245Z,52.13
2022-09-06T04:33:04.203Z,52.39
2022-09-06T04:35:32.210Z,52.43
2022-09-06T04:38:01.758Z,52.42
2022-09-06T04:40:29.884Z,52.10
2022-09-06T04:42:57.812Z,52.39
2022-09-06T04:45:26.099Z,52.22
2022-09-06T04:47:55.469Z,52.19
2022-09-06T04:50:23.415Z,52.30
2022-09-06T04:52:51.339Z,52.27
2022-09-06T04:55:19.304Z,52.11
2022-09-06T04:57:51.050Z,51.95
2022-09-06T05:00:19.981Z,52.21
2022-09-06T05:02:48.627Z,52.32
2022-09-06T05:05:18.115Z,52.08
2022-09-06T05:07:46.086Z,52.15
2022-09-06T05:10:14.058Z,51.94
2022-09-06T05:12:44.308Z,52.04
2022-09-06T05:15:12.722Z,52.11
2022-09-06T05:17:40.689Z,51.98
2022-09-06T05:20:10.344Z,52.03
2022-09-06T05:22:40.115Z,52.28
2022-09-06T05:25:09.824Z,52.06
2022-09-06T05:27:38.039Z,52.17
2022-09-06T05:30:06.668Z,52.01
2022-09-06T05:32:34.653Z,51.99
2022-09-06T05:35:02.627Z,52.54
2022-09-06T05:37:30.698Z,52.37
2022-09-06T05:40:01.935Z,52.88
2022-09-06T05:42:29.986Z,52.54
2022-09-06T05:44:57.968Z,52.92
2022-09-06T05:47:26.050Z,52.78
2022-09-06T05:49:55.153Z,52.94
2022-09-06T05:52:23.103Z,52.97
2022-09-06T05:54:51.303Z,53.03
2022-09-06T05:57:20.628Z,53.19
2022-09-06T05:59:48.600Z,52.87
2022-09-06T06:02:16.588Z,53.25
2022-09-06T06:04:44.586Z,53.01
2022-09-06T06:07:12.607Z,53.26
2022-09-06T06:09:40.586Z,52.88
2022-09-06T06:12:08.931Z,52.96
2022-09-06T06:14:38.231Z,52.96
2022-09-06T06:17:06.239Z,53.09
2022-09-06T06:19:34.217Z,53.20
2022-09-06T06:22:02.157Z,53.30
2022-09-06T06:24:30.099Z,53.18
2022-09-06T06:26:58.104Z,53.02
2022-09-06T06:29:26.640Z,53.06
2022-09-06T06:31:55.995Z,53.02
2022-09-06T06:34:24.026Z,53.01
2022-09-06T06:36:52.057Z,53.42
2022-09-06T06:39:20.492Z,52.92
2022-09-06T06:41:50.773Z,53.09
2022-09-06T06:44:18.795Z,53.14
2022-09-06T06:46:46.805Z,53.24
2022-09-06T06:49:16.130Z,53.25
2022-09-06T06:51:44.103Z,52.92
2022-09-06T06:54:12.098Z,53.25
2022-09-06T06:56:41.262Z,53.18
2022-09-06T06:59:09.342Z,53.23
2022-09-06T07:01:38.060Z,52.96
2022-09-06T07:04:07.226Z,52.94
2022-09-06T07:12:26.680Z,52.93
2022-09-06T07:14:54.611Z,53.05
2022-09-06T07:17:22.552Z,52.87
2022-09-06T07:22:40.600Z,53.02
2022-09-06T07:25:09.981Z,53.12
2022-09-06T07:30:14.416Z,53.06
2022-09-06T07:32:42.394Z,52.94
2022-09-06T07:35:12.456Z,53.26
2022-09-06T07:37:41.823Z,53.32
2022-09-06T07:40:11.370Z,53.16
2022-09-06T07:42:39.449Z,53.04
2022-09-06T07:45:08.362Z,53.12
2022-09-06T07:53:15.593Z,53.47
2022-09-06T07:55:48.807Z,53.60
2022-09-06T07:58:16.751Z,53.44
2022-09-06T08:00:44.733Z,53.12
2022-09-06T08:03:13.008Z,53.26
2022-09-06T08:11:18.555Z,53.51
2022-09-06T08:13:49.556Z,53.07
2022-09-06T08:16:17.975Z,53.47
2022-09-06T08:18:45.943Z,53.36
2022-09-06T08:21:15.762Z,53.38
2022-09-06T08:23:49.243Z,53.53
2022-09-06T08:26:17.446Z,53.65
2022-09-06T08:28:45.557Z,53.47
2022-09-06T08:31:15.347Z,53.43
2022-09-06T08:33:44.878Z,53.60
2022-09-06T08:36:13.248Z,53.41
2022-09-06T08:38:41.387Z,53.69
2022-09-06T08:41:12.839Z,53.63
2022-09-06T08:43:41.459Z,53.49
2022-09-06T08:46:11.728Z,53.88
2022-09-06T08:48:39.970Z,53.38
2022-09-06T08:51:29.236Z,53.39
2022-09-06T08:54:05.606Z,53.59
2022-09-06T08:56:39.828Z,53.72
2022-09-06T08:59:12.815Z,53.46
2022-09-06T09:01:49.120Z,53.74
2022-09-06T09:04:21.450Z,53.31
2022-09-06T09:06:56.250Z,53.62
2022-09-06T09:09:24.164Z,53.40
2022-09-06T09:11:53.574Z,53.42
2022-09-06T09:14:25.720Z,53.43
2022-09-06T09:16:57.501Z,53.62
2022-09-06T09:19:25.427Z,53.69
2022-09-06T09:21:53.458Z,53.64
2022-09-06T09:24:21.475Z,53.58
2022-09-06T09:26:53.117Z,53.35
2022-09-06T09:29:27.500Z,53.31
2022-09-06T09:31:57.579Z,53.64
2022-09-06T09:34:34.006Z,53.52
2022-09-06T09:40:08.398Z,53.39
2022-09-06T09:42:38.586Z,53.38
2022-09-06T09:45:29.404Z,53.04
2022-09-06T09:47:57.967Z,53.25
2022-09-06T09:50:29.181Z,53.33
2022-09-06T09:52:57.549Z,53.61
2022-09-06T09:55:27.498Z,53.16
2022-09-06T09:57:56.408Z,53.28
2022-09-06T10:00:39.708Z,53.27
2022-09-06T10:03:14.876Z,53.01
2022-09-06T10:05:43.788Z,53.15
2022-09-06T10:08:14.209Z,53.37
2022-09-06T10:10:47.587Z,53.16
2022-09-06T10:13:21.737Z,53.15
2022-09-06T10:15:52.718Z,52.89
2022-09-06T10:18:31.918Z,53.01
2022-09-06T10:21:03.020Z,53.23
2022-09-06T10:26:44.671Z,53.53
2022-09-06T10:29:14.720Z,53.34
2022-09-06T10:32:03.271Z,53.43
2022-09-06T10:34:50.209Z,53.01
2022-09-06T10:37:30.195Z,53.39
2022-09-06T10:40:07.474Z,53.03
2022-09-06T10:42:42.661Z,52.97
2022-09-06T10:45:22.407Z,53.04
2022-09-06T10:47:58.226Z,53.16
2022-09-06T10:50:35.733Z,53.58
2022-09-06T10:53:11.884Z,53.54
2022-09-06T10:55:46.219Z,53.53
2022-09-06T10:58:23.491Z,53.33
2022-09-06T11:00:53.939Z,53.58
2022-09-06T11:06:18.354Z,53.61
2022-09-06T11:08:57.849Z,53.39
2022-09-06T11:11:35.757Z,53.30
2022-09-06T11:14:10.229Z,53.23
2022-09-06T11:16:47.589Z,53.33
2022-09-06T11:19:24.053Z,53.62
2022-09-06T11:22:20.900Z,53.82
2022-09-06T11:25:11.835Z,53.51
2022-09-06T11:27:43.050Z,53.41
2022-09-06T11:30:16.687Z,53.66
2022-09-06T11:32:49.043Z,53.86
2022-09-06T11:35:32.178Z,53.66
2022-09-06T11:38:02.685Z,53.62
2022-09-06T11:40:38.422Z,53.43
2022-09-06T11:43:16.461Z,53.63
2022-09-06T11:45:47.725Z,53.73
2022-09-06T11:48:35.210Z,53.83
2022-09-06T11:51:07.855Z,53.90
2022-09-06T11:53:57.805Z,53.48
2022-09-06T11:56:31.712Z,53.80
2022-09-06T11:59:05.290Z,53.73
2022-09-06T12:01:41.052Z,53.72
2022-09-06T12:04:11.203Z,53.67
2022-09-06T12:06:44.009Z,53.44
2022-09-06T12:09:29.890Z,53.65
2022-09-06T12:11:59.032Z,53.61
2022-09-06T12:14:33.504Z,53.70
2022-09-06T12:17:29.021Z,53.81
2022-09-06T12:20:07.358Z,53.68
2022-09-06T12:22:55.972Z,53.66
2022-09-06T12:25:56.172Z,54.11
2022-09-06T12:28:36.351Z,53.70
2022-09-06T12:31:39.956Z,53.96
2022-09-06T12:34:12.627Z,53.66
2022-09-06T12:36:50.797Z,53.81
2022-09-06T12:39:21.413Z,53.71
2022-09-06T12:41:51.992Z,53.79
2022-09-06T12:44:28.875Z,53.75
2022-09-06T12:47:02.575Z,53.94
2022-09-06T12:49:30.499Z,53.92
2022-09-06T12:52:08.712Z,54.02
2022-09-06T12:54:46.583Z,53.84
2022-09-06T12:57:19.102Z,54.07
2022-09-06T12:59:55.511Z,53.94
2022-09-06T13:02:31.168Z,53.72
2022-09-06T13:05:05.511Z,53.61
2022-09-06T13:07:35.483Z,53.76
2022-09-06T13:10:05.377Z,53.60
2022-09-06T13:12:36.553Z,53.50
2022-09-06T13:15:08.850Z,53.56
2022-09-06T13:17:38.443Z,53.52
2022-09-06T13:20:16.294Z,52.93
2022-09-06T13:22:47.468Z,53.43
2022-09-06T13:25:24.832Z,53.46
2022-09-06T13:27:57.773Z,53.17
2022-09-06T13:30:38.584Z,52.91
2022-09-06T13:33:08.561Z,53.04
2022-09-06T13:35:39.086Z,53.00
2022-09-06T13:38:31.866Z,52.88
2022-09-06T13:41:17.226Z,53.22
2022-09-06T13:43:48.103Z,53.31
2022-09-06T13:46:16.162Z,52.90
2022-09-06T13:48:45.104Z,53.18
2022-09-06T13:51:13.215Z,53.04
2022-09-06T13:53:41.148Z,53.00
2022-09-06T13:56:12.037Z,52.91
2022-09-06T13:58:40.158Z,53.10
2022-09-06T14:01:09.935Z,53.03
2022-09-06T14:03:41.846Z,53.07
2022-09-06T14:06:11.025Z,52.76
2022-09-06T14:09:03.260Z,52.83
2022-09-06T14:11:29.246Z,53.24
2022-09-06T14:13:57.412Z,53.10
2022-09-06T14:16:25.993Z,53.06
2022-09-06T14:18:54.178Z,53.19
2022-09-06T14:21:22.315Z,53.19
2022-09-06T14:23:52.301Z,53.26
2022-09-06T14:26:21.411Z,53.00
2022-09-06T14:28:51.451Z,52.91
2022-09-06T14:31:21.506Z,52.94
2022-09-06T14:33:50.525Z,53.02
2022-09-06T14:36:21.332Z,53.32
2022-09-06T14:38:50.440Z,52.94
2022-09-06T14:41:19.925Z,53.48
2022-09-06T14:43:52.266Z,53.15
2022-09-06T14:46:22.117Z,53.51
2022-09-06T14:48:56.672Z,53.27
2022-09-06T14:51:25.491Z,53.41
2022-09-06T14:53:55.864Z,53.46
2022-09-06T14:56:24.561Z,53.36
2022-09-06T14:58:57.484Z,53.33
2022-09-06T15:01:28.643Z,53.29
2022-09-06T15:03:58.563Z,53.28
2022-09-06T15:06:28.190Z,53.80
2022-09-06T15:08:59.346Z,53.37
2022-09-06T15:11:34.670Z,53.64
2022-09-06T15:14:05.505Z,53.70
2022-09-06T15:16:34.414Z,53.80
2022-09-06T15:19:02.799Z,53.44
2022-09-06T15:21:31.648Z,53.80
2022-09-06T15:24:00.159Z,53.73
2022-09-06T15:26:28.367Z,53.35
2022-09-06T15:28:56.623Z,53.40
2022-09-06T15:31:26.275Z,53.34
2022-09-06T15:33:54.594Z,53.77
2022-09-06T15:36:22.626Z,53.60
2022-09-06T15:38:53.929Z,53.62
2022-09-06T15:41:25.551Z,53.34
2022-09-06T15:43:56.792Z,53.42
2022-09-06T15:46:44.243Z,53.69
2022-09-06T15:49:13.989Z,53.55
2022-09-06T15:51:42.228Z,53.62
2022-09-06T15:54:12.233Z,53.55
2022-09-06T15:56:40.367Z,53.62
2022-09-06T15:59:08.583Z,53.52
2022-09-06T16:01:38.665Z,53.71
2022-09-06T16:04:07.496Z,53.73
2022-09-06T16:06:37.711Z,53.38
2022-09-06T16:09:07.817Z,53.41
2022-09-06T16:11:37.026Z,53.53
2022-09-06T16:14:06.077Z,53.51
2022-09-06T16:16:36.080Z,53.81
2022-09-06T16:19:05.837Z,53.87
2022-09-06T16:21:35.767Z,53.92
2022-09-06T16:24:05.767Z,53.73
2022-09-06T16:26:36.923Z,53.81
2022-09-06T16:29:06.483Z,53.68
2022-09-06T16:31:39.723Z,53.50
2022-09-06T16:34:10.350Z,53.42
2022-09-06T16:36:39.123Z,53.58
2022-09-06T16:39:07.948Z,53.64
2022-09-06T16:41:40.545Z,53.66
2022-09-06T16:44:09.300Z,53.91
2022-09-06T16:46:40.198Z,53.67
2022-09-06T16:49:10.301Z,53.83
2022-09-06T16:51:38.664Z,53.70
2022-09-06T16:54:06.917Z,53.43
2022-09-06T16:56:36.054Z,53.91
2022-09-06T16:59:06.638Z,53.90
2022-09-06T17:01:36.384Z,53.46
2022-09-06T17:04:05.667Z,53.78
2022-09-06T17:06:42.225Z,53.54
2022-09-06T17:09:10.252Z,53.68
2022-09-06T17:11:40.110Z,53.44
2022-09-06T17:14:08.108Z,53.58
2022-09-06T17:16:53.543Z,53.73
2022-09-06T17:19:21.669Z,53.49
2022-09-06T17:21:51.079Z,53.16
2022-09-06T17:24:19.049Z,53.59
2022-09-06T17:26:47.259Z,53.18
2022-09-06T17:29:15.320Z,53.20
2022-09-06T17:31:43.424Z,53.35
2022-09-06T17:34:11.745Z,53.51
2022-09-06T17:36:39.781Z,53.42
2022-09-06T17:39:11.740Z,53.21
2022-09-06T17:41:42.440Z,53.50
2022-09-06T17:44:13.219Z,53.47
2022-09-06T17:46:57.154Z,53.26
2022-09-06T17:49:30.646Z,53.44
2022-09-06T17:51:58.696Z,53.10
2022-09-06T17:54:28.473Z,53.56
2022-09-06T17:56:56.591Z,53.45
2022-09-06T17:59:24.600Z,53.40
2022-09-06T18:01:52.590Z,53.34
2022-09-06T18:04:20.644Z,53.39
2022-09-06T18:06:48.686Z,53.12
2022-09-06T18:09:18.038Z,53.06
2022-09-06T18:11:47.594Z,53.52
2022-09-06T18:14:20.941Z,53.19
2022-09-06T18:16:49.592Z,53.52
2022-09-06T18:19:18.928Z,53.31
2022-09-06T18:21:49.302Z,53.52
2022-09-06T18:24:17.516Z,53.70
2022-09-06T18:26:47.512Z,53.42
2022-09-06T18:29:18.442Z,53.48
2022-09-06T18:31:46.736Z,53.38
2022-09-06T18:34:16.597Z,53.51
2022-09-06T18:36:44.646Z,53.35
2022-09-06T18:39:13.291Z,53.45
2022-09-06T18:41:58.731Z,53.79
2022-09-06T18:44:31.913Z,53.65
2022-09-06T18:47:02.209Z,53.79
2022-09-06T18:49:32.606Z,53.58
2022-09-06T18:52:01.260Z,53.87
2022-09-06T18:54:29.357Z,53.88
2022-09-06T18:56:57.612Z,53.44
2022-09-06T18:59:27.061Z,53.67
2022-09-06T19:01:55.215Z,53.62
2022-09-06T19:04:23.667Z,53.74
2022-09-06T19:06:51.709Z,53.87
2022-09-06T19:09:19.669Z,53.57
2022-09-06T19:11:51.645Z,53.86
2022-09-06T19:14:19.878Z,53.57
2022-09-06T19:16:50.293Z,53.74
2022-09-06T19:19:18.617Z,53.42
2022-09-06T19:21:46.666Z,53.74
2022-09-06T19:24:16.073Z,53.67
2022-09-06T19:26:45.193Z,53.44
2022-09-06T19:29:15.403Z,53.77
2022-09-06T19:31:44.284Z,53.36
2022-09-06T19:34:15.600Z,53.46
2022-09-06T19:36:44.564Z,53.70
2022-09-06T19:39:15.541Z,53.56
2022-09-06T19:41:46.967Z,53.36
2022-09-06T19:44:16.124Z,53.33
2022-09-06T19:46:46.732Z,53.34
2022-09-06T19:49:17.428Z,53.35
2022-09-06T19:51:46.733Z,53.29
2022-09-06T19:54:15.650Z,53.63
2022-09-06T19:56:44.429Z,53.54
2022-09-06T19:59:13.646Z,53.36
2022-09-06T20:01:43.464Z,53.28
2022-09-06T20:04:13.116Z,53.29
2022-09-06T20:06:42.570Z,53.21
2022-09-06T20:09:12.077Z,53.62
2022-09-06T20:11:41.358Z,53.46
2022-09-06T20:14:10.031Z,53.14
2022-09-06T20:16:41.405Z,53.14
2022-09-06T20:19:10.604Z,53.54
2022-09-06T20:21:38.635Z,53.12
2022-09-06T20:24:08.322Z,53.30
2022-09-06T20:26:36.636Z,53.57
2022-09-06T20:29:06.748Z,53.09
2022-09-06T20:31:36.939Z,53.54
2022-09-06T20:34:06.418Z,53.44
2022-09-06T20:36:34.556Z,53.47
2022-09-06T20:39:02.997Z,53.43
2022-09-06T20:41:33.933Z,53.41
2022-09-06T20:44:02.026Z,53.38
2022-09-06T20:46:32.433Z,53.18
2022-09-06T20:49:04.456Z,53.21
2022-09-06T20:51:34.615Z,53.21
2022-09-06T20:54:04.784Z,53.03
2022-09-06T20:56:36.036Z,52.97
2022-09-06T20:59:05.953Z,52.93
2022-09-06T21:01:35.894Z,53.16
2022-09-06T21:04:05.829Z,53.24
2022-09-06T21:06:35.764Z,53.28
2022-09-06T21:09:04.986Z,53.24
2022-09-06T21:11:34.773Z,53.09
2022-09-06T21:14:03.336Z,53.09
2022-09-06T21:16:32.673Z,52.80
2022-09-06T21:19:02.678Z,53.09
2022-09-06T21:21:32.410Z,53.15
2022-09-06T21:24:01.312Z,53.00
2022-09-06T21:26:29.464Z,53.23
2022-09-06T21:28:59.348Z,52.69
2022-09-06T21:31:30.614Z,52.69
2022-09-06T21:34:00.311Z,53.15
2022-09-06T21:36:30.243Z,52.71
2022-09-06T21:39:00.266Z,53.05
2022-09-06T21:41:29.095Z,52.74
2022-09-06T21:44:00.115Z,52.83
2022-09-06T21:46:32.931Z,52.79
2022-09-06T21:49:03.602Z,52.74
2022-09-06T21:51:32.589Z,52.90
2022-09-06T21:54:03.561Z,52.73
2022-09-06T21:56:32.447Z,52.53
2022-09-06T21:59:01.854Z,52.52
2022-09-06T22:01:31.993Z,52.82
2022-09-06T22:04:00.698Z,52.97
2022-09-06T22:06:30.358Z,52.64
2022-09-06T22:09:00.161Z,52.73
2022-09-06T22:11:30.047Z,52.61
2022-09-06T22:14:00.051Z,52.86
2022-09-06T22:16:30.316Z,52.86
2022-09-06T22:18:58.581Z,52.71
2022-09-06T22:21:26.750Z,52.94
2022-09-06T22:23:56.790Z,52.68
2022-09-06T22:26:26.104Z,52.53
2022-09-06T22:28:55.145Z,52.78
2022-09-06T22:31:23.833Z,52.55
2022-09-06T22:33:54.020Z,52.46
2022-09-06T22:36:22.147Z,52.74
2022-09-06T22:38:53.110Z,52.70
2022-09-06T22:41:21.214Z,52.46
2022-09-06T22:43:49.153Z,52.66
2022-09-06T22:46:17.232Z,52.61
2022-09-06T22:48:45.324Z,52.72
2022-09-06T22:51:14.766Z,52.76
2022-09-06T22:53:42.762Z,52.38
2022-09-06T22:56:11.324Z,52.73
2022-09-06T22:58:39.364Z,52.65
2022-09-06T23:01:09.580Z,52.36
2022-09-06T23:03:38.142Z,52.13
2022-09-06T23:06:06.910Z,52.14
2022-09-06T23:08:38.338Z,52.46
2022-09-06T23:11:08.118Z,52.38
2022-09-06T23:13:36.233Z,52.23
2022-09-06T23:16:05.981Z,52.53
2022-09-06T23:18:34.202Z,52.39
2022-09-06T23:21:07.063Z,52.09
2022-09-06T23:23:38.360Z,52.41
2022-09-06T23:26:11.755Z,52.58
2022-09-06T23:28:40.210Z,52.61
2022-09-06T23:31:09.705Z,52.29
2022-09-06T23:33:38.636Z,52.43
2022-09-06T23:36:08.134Z,52.19
2022-09-06T23:38:40.497Z,52.11
2022-09-06T23:41:10.452Z,52.17
2022-09-06T23:43:38.963Z,52.42
2022-09-06T23:46:07.113Z,52.58
2022-09-06T23:48:35.630Z,52.09
2022-09-06T23:51:04.349Z,52.52
2022-09-06T23:53:32.961Z,52.29
2022-09-06T23:56:02.804Z,52.43
2022-09-06T23:58:31.247Z,52.51
